createdAt,value
2022-08-22T00:01:08.722Z,45.47
2022-08-22T00:03:00.023Z,44.14
2022-08-22T00:03:00.888Z,44.04
2022-08-22T00:03:03.716Z,43.97
2022-08-22T00:03:55.802Z,45.48
2022-08-22T00:06:31.444Z,45.39
2022-08-22T00:09:19.693Z,45.22
2022-08-22T00:12:03.696Z,45.48
2022-08-22T00:14:39.861Z,45.59
2022-08-22T00:17:41.037Z,45.65
2022-08-22T00:20:30.618Z,45.77
2022-08-22T00:23:09.407Z,45.39
2022-08-22T00:25:47.822Z,45.64
2022-08-22T00:28:29.870Z,45.86
2022-08-22T00:31:09.295Z,45.76
2022-08-22T00:34:14.089Z,45.75
2022-08-22T00:37:05.318Z,45.68
2022-08-22T00:39:40.860Z,46.01
2022-08-22T00:42:38.384Z,46.25
2022-08-22T00:45:30.703Z,45.72
2022-08-22T00:48:12.403Z,45.95
2022-08-22T00:51:35.436Z,46.15
2022-08-22T00:54:18.372Z,46.10
2022-08-22T00:57:09.565Z,46.03
2022-08-22T00:59:48.113Z,45.96
2022-08-22T01:02:26.298Z,45.88
2022-08-22T01:05:34.966Z,46.34
2022-08-22T01:08:26.316Z,45.67
2022-08-22T01:11:11.823Z,46.35
2022-08-22T01:14:08.296Z,46.28
2022-08-22T01:16:35.227Z,46.02
2022-08-22T01:19:34.504Z,46.31
2022-08-22T01:22:20.225Z,46.32
2022-08-22T01:25:25.887Z,46.12
2022-08-22T01:28:11.783Z,46.09
2022-08-22T01:31:12.675Z,45.72
2022-08-22T01:34:04.145Z,46.17
2022-08-22T01:36:44.115Z,46.12
2022-08-22T01:39:35.616Z,46.11
2022-08-22T01:42:17.534Z,46.27
2022-08-22T01:45:25.467Z,46.47
2022-08-22T01:48:32.083Z,46.22
2022-08-22T01:51:59.297Z,46.33
2022-08-22T01:54:40.926Z,46.53
2022-08-22T01:57:09.223Z,46.80
2022-08-22T01:59:46.168Z,46.44
2022-08-22T02:02:40.598Z,46.72
2022-08-22T02:05:32.183Z,46.88
2022-08-22T02:08:27.327Z,46.66
2022-08-22T02:11:04.885Z,46.85
2022-08-22T02:14:09.208Z,46.40
2022-08-22T02:16:42.481Z,46.83
2022-08-22T02:19:15.704Z,46.76
2022-08-22T02:21:45.574Z,46.93
2022-08-22T02:24:23.443Z,46.74
2022-08-22T02:27:05.315Z,46.91
2022-08-22T02:30:12.867Z,46.75
2022-08-22T02:32:42.513Z,46.96
2022-08-22T02:35:22.446Z,46.94
2022-08-22T02:38:38.484Z,46.23
2022-08-22T02:41:18.502Z,46.51
2022-08-22T02:43:53.214Z,46.70
2022-08-22T02:46:29.612Z,46.64
2022-08-22T02:49:09.747Z,47.09
2022-08-22T02:52:03.463Z,46.63
2022-08-22T02:54:52.293Z,46.58
2022-08-22T02:57:30.462Z,46.79
2022-08-22T03:00:27.692Z,46.74
2022-08-22T03:03:20.649Z,46.95
2022-08-22T03:06:07.839Z,46.82
2022-08-22T03:08:50.821Z,46.88
2022-08-22T03:11:31.547Z,46.79
2022-08-22T03:14:18.174Z,46.67
2022-08-22T03:17:21.220Z,46.97
2022-08-22T03:20:12.972Z,47.14
2022-08-22T03:23:10.133Z,47.10
2022-08-22T03:26:16.859Z,46.81
2022-08-22T03:29:00.992Z,47.24
2022-08-22T03:31:32.836Z,46.90
2022-08-22T03:34:27.792Z,47.24
2022-08-22T03:37:24.335Z,46.95
2022-08-22T03:39:51.482Z,47.09
2022-08-22T03:43:04.685Z,46.93
2022-08-22T03:46:00.497Z,46.92
2022-08-22T03:48:47.855Z,46.85
2022-08-22T03:51:36.749Z,47.01
2022-08-22T03:54:42.233Z,46.91
2022-08-22T03:57:51.256Z,46.98
2022-08-22T04:00:40.139Z,46.70
2022-08-22T04:03:35.270Z,47.33
2022-08-22T04:06:28.997Z,47.28
2022-08-22T04:09:11.566Z,47.10
2022-08-22T04:11:45.834Z,47.38
2022-08-22T04:14:38.843Z,47.16
2022-08-22T04:17:43.637Z,46.96
2022-08-22T04:21:02.133Z,47.00
2022-08-22T04:23:50.889Z,47.58
2022-08-22T04:27:03.025Z,47.50
2022-08-22T04:30:10.140Z,47.54
2022-08-22T04:32:43.456Z,47.49
2022-08-22T04:35:54.184Z,47.55
2022-08-22T04:38:34.033Z,47.36
2022-08-22T04:41:09.593Z,47.26
2022-08-22T04:43:47.256Z,47.29
2022-08-22T04:46:25.713Z,47.76
2022-08-22T04:49:35.671Z,47.66
2022-08-22T04:52:52.264Z,47.72
2022-08-22T04:55:31.539Z,47.22
2022-08-22T04:58:30.253Z,47.70
2022-08-22T05:00:59.694Z,47.67
2022-08-22T05:03:29.958Z,47.38
2022-08-22T05:06:00.975Z,47.45
2022-08-22T05:08:33.714Z,47.77
2022-08-22T05:11:04.425Z,47.39
2022-08-22T05:13:40.053Z,47.37
2022-08-22T05:16:18.959Z,47.64
2022-08-22T05:18:51.479Z,47.58
2022-08-22T05:21:27.156Z,47.46
2022-08-22T05:24:02.251Z,47.86
2022-08-22T05:26:33.288Z,47.49
2022-08-22T05:29:04.726Z,47.62
2022-08-22T05:31:42.276Z,47.56
2022-08-22T05:34:18.055Z,47.54
2022-08-22T05:36:52.910Z,47.60
2022-08-22T05:39:25.317Z,47.97
2022-08-22T05:41:55.934Z,48.22
2022-08-22T05:44:30.799Z,47.68
2022-08-22T05:47:18.988Z,47.98
2022-08-22T05:49:55.053Z,47.99
2022-08-22T05:52:59.171Z,47.86
2022-08-22T05:55:50.758Z,47.80
2022-08-22T05:58:36.294Z,47.65
2022-08-22T06:01:34.770Z,47.62
2022-08-22T06:04:40.268Z,48.02
2022-08-22T06:07:13.179Z,47.96
2022-08-22T06:09:46.195Z,48.10
2022-08-22T06:12:54.655Z,47.73
2022-08-22T06:15:51.713Z,48.25
2022-08-22T06:18:23.020Z,47.89
2022-08-22T06:21:06.652Z,47.95
2022-08-22T06:23:41.846Z,48.09
2022-08-22T06:26:20.209Z,48.42
2022-08-22T06:28:55.093Z,47.99
2022-08-22T06:31:29.058Z,48.11
2022-08-22T06:34:03.176Z,48.03
2022-08-22T06:36:32.261Z,48.10
2022-08-22T06:39:20.993Z,48.12
2022-08-22T06:42:15.852Z,48.32
2022-08-22T06:44:47.108Z,48.50
2022-08-22T06:47:20.320Z,48.44
2022-08-22T06:49:47.578Z,48.32
2022-08-22T06:52:21.714Z,47.99
2022-08-22T06:54:52.834Z,48.31
2022-08-22T06:57:53.724Z,48.48
2022-08-22T07:00:21.399Z,48.79
2022-08-22T07:02:55.459Z,48.21
2022-08-22T07:05:28.206Z,48.68
2022-08-22T07:07:56.515Z,48.29
2022-08-22T07:10:25.031Z,48.17
2022-08-22T07:12:56.633Z,48.28
2022-08-22T07:15:43.185Z,48.45
2022-08-22T07:18:18.268Z,48.17
2022-08-22T07:20:50.143Z,48.34
2022-08-22T07:23:47.274Z,48.66
2022-08-22T07:26:40.617Z,48.54
2022-08-22T07:29:21.251Z,48.23
2022-08-22T07:31:50.025Z,48.22
2022-08-22T07:34:38.196Z,48.16
2022-08-22T07:37:14.533Z,48.40
2022-08-22T07:39:50.209Z,48.54
2022-08-22T07:42:21.773Z,48.55
2022-08-22T07:45:09.740Z,48.25
2022-08-22T07:47:58.429Z,48.45
2022-08-22T07:50:32.756Z,48.38
2022-08-22T07:53:28.004Z,48.12
2022-08-22T07:55:59.720Z,48.07
2022-08-22T07:58:29.853Z,48.44
2022-08-22T08:00:58.167Z,48.06
2022-08-22T08:03:29.138Z,48.65
2022-08-22T08:05:56.744Z,48.39
2022-08-22T08:08:39.317Z,48.48
2022-08-22T08:11:10.649Z,48.48
2022-08-22T08:13:47.514Z,48.72
2022-08-22T08:16:23.428Z,48.14
2022-08-22T08:18:56.726Z,48.50
2022-08-22T08:21:31.915Z,48.43
2022-08-22T08:24:01.925Z,48.28
2022-08-22T08:27:00.176Z,47.85
2022-08-22T08:29:28.933Z,47.98
2022-08-22T08:31:56.661Z,47.74
2022-08-22T08:34:26.735Z,47.55
2022-08-22T08:36:53.661Z,47.75
2022-08-22T08:39:42.152Z,47.82
2022-08-22T08:42:17.714Z,48.22
2022-08-22T08:45:05.864Z,47.48
2022-08-22T08:48:06.974Z,48.14
2022-08-22T08:50:53.216Z,47.43
2022-08-22T08:53:43.464Z,47.24
2022-08-22T08:56:35.624Z,47.16
2022-08-22T08:59:21.529Z,47.71
2022-08-22T09:02:20.516Z,47.63
2022-08-22T09:04:59.645Z,47.24
2022-08-22T09:07:48.381Z,47.36
2022-08-22T09:10:41.467Z,47.79
2022-08-22T09:13:58.227Z,47.63
2022-08-22T09:16:27.980Z,47.26
2022-08-22T09:19:04.017Z,47.00
2022-08-22T09:21:52.183Z,46.85
2022-08-22T09:25:06.472Z,47.14
2022-08-22T09:27:45.908Z,47.02
2022-08-22T09:30:19.680Z,47.37
2022-08-22T09:33:14.754Z,46.79
2022-08-22T09:36:03.130Z,47.12
2022-08-22T09:38:52.104Z,47.01
2022-08-22T09:42:00.753Z,47.14
2022-08-22T09:44:39.804Z,46.95
2022-08-22T09:47:16.072Z,47.09
2022-08-22T09:49:57.670Z,46.43
2022-08-22T09:52:57.010Z,46.94
2022-08-22T09:55:45.310Z,46.90
2022-08-22T09:58:42.642Z,46.79
2022-08-22T10:01:49.020Z,46.56
2022-08-22T10:04:44.597Z,46.59
2022-08-22T10:07:52.994Z,45.90
2022-08-22T10:10:26.243Z,46.16
2022-08-22T10:13:11.893Z,45.94
2022-08-22T10:15:50.668Z,46.51
2022-08-22T10:18:53.856Z,46.40
2022-08-22T10:21:25.686Z,45.67
2022-08-22T10:24:07.268Z,46.54
2022-08-22T10:26:55.977Z,45.63
2022-08-22T10:29:48.188Z,45.58
2022-08-22T10:32:21.272Z,45.71
2022-08-22T10:34:59.229Z,45.53
2022-08-22T10:37:40.453Z,45.51
2022-08-22T10:40:19.296Z,46.30
2022-08-22T10:42:59.397Z,45.81
2022-08-22T10:45:39.901Z,46.15
2022-08-22T10:48:22.484Z,45.58
2022-08-22T10:51:02.453Z,46.05
2022-08-22T10:53:57.911Z,45.52
2022-08-22T10:56:40.590Z,45.98
2022-08-22T10:59:39.279Z,45.92
2022-08-22T11:02:11.973Z,45.05
2022-08-22T11:04:57.764Z,45.51
2022-08-22T11:07:48.415Z,45.85
2022-08-22T11:10:39.854Z,44.91
2022-08-22T11:13:29.331Z,45.71
2022-08-22T11:16:00.333Z,45.26
2022-08-22T11:19:01.976Z,44.68
2022-08-22T11:21:56.944Z,44.73
2022-08-22T11:24:34.830Z,44.75
2022-08-22T11:27:17.697Z,44.80
2022-08-22T11:30:09.497Z,45.03
2022-08-22T11:33:04.573Z,44.84
2022-08-22T11:35:51.964Z,44.67
2022-08-22T11:38:21.913Z,45.06
2022-08-22T11:41:19.854Z,45.16
2022-08-22T11:43:55.141Z,44.80
2022-08-22T11:46:32.015Z,45.20
2022-08-22T11:49:32.820Z,44.87
2022-08-22T11:52:30.460Z,44.26
2022-08-22T11:55:23.448Z,45.03
2022-08-22T11:58:43.184Z,44.42
2022-08-22T12:01:43.841Z,44.54
2022-08-22T12:04:26.873Z,44.07
2022-08-22T12:06:59.374Z,43.89
2022-08-22T12:09:41.067Z,44.70
2022-08-22T12:12:19.145Z,44.16
2022-08-22T12:14:59.142Z,44.70
2022-08-22T12:18:01.625Z,43.82
2022-08-22T12:21:01.394Z,43.91
2022-08-22T12:23:49.096Z,44.26
2022-08-22T12:26:22.001Z,44.25
2022-08-22T12:29:27.565Z,44.54
2022-08-22T12:32:33.943Z,44.21
2022-08-22T12:35:27.144Z,44.09
2022-08-22T12:38:28.223Z,43.55
2022-08-22T12:41:36.441Z,44.32
2022-08-22T12:44:35.401Z,43.43
2022-08-22T12:47:21.555Z,43.83
2022-08-22T12:49:56.092Z,43.71
2022-08-22T12:52:38.173Z,43.32
2022-08-22T12:55:20.114Z,43.92
2022-08-22T12:58:07.016Z,43.87
2022-08-22T13:00:40.239Z,43.95
2022-08-22T13:03:12.849Z,43.95
2022-08-22T13:05:45.933Z,43.06
2022-08-22T13:08:26.774Z,43.67
2022-08-22T13:11:02.165Z,43.35
2022-08-22T13:13:37.268Z,43.43
2022-08-22T13:16:16.130Z,43.00
2022-08-22T13:18:55.524Z,43.08
2022-08-22T13:21:36.012Z,43.21
2022-08-22T13:24:38.876Z,43.14
2022-08-22T13:27:16.972Z,43.37
2022-08-22T13:30:00.907Z,42.61
2022-08-22T13:32:54.297Z,43.08
2022-08-22T13:35:26.696Z,42.71
2022-08-22T13:38:03.287Z,42.68
2022-08-22T13:40:33.177Z,43.04
2022-08-22T13:43:11.145Z,42.66
2022-08-22T13:45:42.076Z,42.22
2022-08-22T13:48:14.440Z,42.47
2022-08-22T13:51:12.178Z,42.67
2022-08-22T13:54:00.743Z,42.73
2022-08-22T13:56:39.162Z,42.04
2022-08-22T13:59:50.110Z,42.57
2022-08-22T14:02:55.234Z,41.92
2022-08-22T14:05:44.059Z,41.95
2022-08-22T14:08:22.827Z,42.45
2022-08-22T14:11:03.869Z,42.28
2022-08-22T14:13:39.741Z,41.79
2022-08-22T14:16:13.246Z,41.70
2022-08-22T14:18:50.206Z,41.74
2022-08-22T14:21:40.009Z,42.23
2022-08-22T14:24:17.376Z,42.31
2022-08-22T14:27:14.433Z,42.14
2022-08-22T14:30:06.162Z,42.24
2022-08-22T14:32:47.341Z,42.00
2022-08-22T14:35:34.625Z,41.97
2022-08-22T14:38:21.443Z,41.79
2022-08-22T14:41:52.374Z,41.33
2022-08-22T14:44:30.827Z,41.30
2022-08-22T14:47:05.038Z,41.76
2022-08-22T14:50:01.052Z,41.66
2022-08-22T14:52:37.421Z,41.12
2022-08-22T14:55:10.596Z,41.17
2022-08-22T14:57:47.886Z,41.67
2022-08-22T15:00:26.256Z,41.14
2022-08-22T15:03:07.832Z,41.60
2022-08-22T15:05:50.151Z,41.44
2022-08-22T15:08:24.172Z,41.27
2022-08-22T15:11:09.344Z,41.55
2022-08-22T15:13:42.485Z,41.33
2022-08-22T15:16:23.298Z,41.14
2022-08-22T15:18:52.075Z,40.84
2022-08-22T15:21:24.881Z,41.23
2022-08-22T15:23:59.739Z,40.64
2022-08-22T15:26:34.128Z,41.22
2022-08-22T15:29:17.843Z,41.18
2022-08-22T15:31:51.280Z,41.17
2022-08-22T15:34:30.320Z,41.16
2022-08-22T15:37:00.199Z,40.45
2022-08-22T15:39:56.763Z,40.44
2022-08-22T15:42:33.273Z,41.03
2022-08-22T15:45:00.988Z,40.33
2022-08-22T15:47:36.933Z,40.91
2022-08-22T15:50:15.397Z,40.44
2022-08-22T15:53:19.438Z,40.98
2022-08-22T15:56:22.353Z,40.61
2022-08-22T15:59:15.133Z,40.95
2022-08-22T16:01:52.327Z,40.14
2022-08-22T16:04:34.348Z,40.33
2022-08-22T16:07:02.992Z,40.23
2022-08-22T16:09:46.344Z,39.94
2022-08-22T16:12:33.168Z,40.34
2022-08-22T16:15:05.176Z,40.09
2022-08-22T16:17:41.368Z,40.10
2022-08-22T16:20:08.232Z,40.18
2022-08-22T16:23:09.330Z,39.82
2022-08-22T16:25:45.270Z,40.07
2022-08-22T16:28:57.259Z,40.65
2022-08-22T16:31:33.864Z,40.72
2022-08-22T16:34:16.253Z,40.26
2022-08-22T16:36:47.810Z,40.06
2022-08-22T16:39:21.142Z,40.31
2022-08-22T16:41:56.340Z,40.39
2022-08-22T16:44:29.096Z,40.37
2022-08-22T16:47:13.141Z,40.25
2022-08-22T16:49:49.256Z,40.07
2022-08-22T16:52:25.415Z,39.63
2022-08-22T16:55:05.441Z,40.16
2022-08-22T16:57:38.434Z,39.71
2022-08-22T17:00:23.752Z,39.79
2022-08-22T17:03:09.309Z,40.47
2022-08-22T17:06:01.888Z,39.61
2022-08-22T17:08:37.471Z,39.51
2022-08-22T17:11:40.630Z,40.17
2022-08-22T17:14:41.449Z,40.24
2022-08-22T17:17:25.828Z,40.23
2022-08-22T17:20:16.940Z,40.29
2022-08-22T17:23:13.877Z,39.74
2022-08-22T17:26:01.888Z,40.24
2022-08-22T17:28:40.112Z,39.91
2022-08-22T17:31:14.680Z,40.22
2022-08-22T17:33:41.608Z,40.33
2022-08-22T17:36:08.404Z,40.12
2022-08-22T17:39:12.931Z,39.48
2022-08-22T17:41:54.753Z,39.98
2022-08-22T17:44:28.727Z,40.25
2022-08-22T17:47:10.925Z,40.21
2022-08-22T17:49:40.761Z,39.59
2022-08-22T17:52:28.740Z,39.60
2022-08-22T17:55:34.124Z,39.78
2022-08-22T17:58:12.464Z,40.31
2022-08-22T18:01:15.558Z,40.15
2022-08-22T18:03:53.360Z,39.83
2022-08-22T18:06:26.600Z,39.98
2022-08-22T18:09:22.449Z,40.07
2022-08-22T18:11:54.401Z,40.00
2022-08-22T18:14:41.000Z,39.60
2022-08-22T18:17:27.822Z,40.21
2022-08-22T18:20:17.253Z,39.88
2022-08-22T18:22:49.464Z,39.88
2022-08-22T18:25:19.408Z,40.14
2022-08-22T18:27:51.590Z,40.33
2022-08-22T18:30:24.104Z,40.38
2022-08-22T18:33:11.388Z,39.90
2022-08-22T18:35:49.957Z,40.40
2022-08-22T18:38:34.074Z,39.79
2022-08-22T18:41:10.408Z,39.79
2022-08-22T18:43:45.148Z,40.23
2022-08-22T18:46:28.913Z,40.43
2022-08-22T18:49:14.549Z,40.39
2022-08-22T18:51:43.926Z,40.54
2022-08-22T18:54:13.819Z,39.64
2022-08-22T18:56:55.820Z,40.01
2022-08-22T18:59:31.937Z,40.34
2022-08-22T19:02:21.521Z,40.12
2022-08-22T19:05:07.341Z,40.38
2022-08-22T19:07:56.946Z,40.17
2022-08-22T19:10:51.396Z,40.00
2022-08-22T19:13:45.904Z,39.49
2022-08-22T19:16:27.236Z,40.35
2022-08-22T19:19:17.459Z,39.64
2022-08-22T19:22:20.000Z,40.21
2022-08-22T19:25:14.332Z,40.37
2022-08-22T19:28:09.541Z,39.65
2022-08-22T19:30:44.990Z,40.10
2022-08-22T19:33:19.875Z,40.03
2022-08-22T19:35:54.760Z,39.59
2022-08-22T19:38:57.806Z,40.15
2022-08-22T19:41:53.479Z,40.09
2022-08-22T19:44:20.282Z,40.34
2022-08-22T19:47:08.608Z,39.89
2022-08-22T19:49:43.727Z,40.35
2022-08-22T19:52:16.649Z,39.56
2022-08-22T19:55:07.301Z,39.98
2022-08-22T19:57:44.753Z,39.70
2022-08-22T20:00:40.636Z,39.65
2022-08-22T20:03:18.566Z,39.57
2022-08-22T20:06:43.173Z,40.46
2022-08-22T20:09:39.203Z,40.44
2022-08-22T20:12:17.250Z,39.46
2022-08-22T20:14:46.954Z,40.26
2022-08-22T20:17:25.994Z,39.55
2022-08-22T20:22:59.453Z,40.35
2022-08-22T20:25:41.718Z,40.45
2022-08-22T20:28:38.653Z,40.39
2022-08-22T20:31:19.165Z,39.92
2022-08-22T20:33:48.271Z,39.97
2022-08-22T20:36:28.574Z,40.59
2022-08-22T20:39:08.366Z,40.01
2022-08-22T20:41:40.623Z,40.40
2022-08-22T20:44:18.612Z,39.77
2022-08-22T20:46:46.161Z,40.46
2022-08-22T20:49:21.385Z,39.96
2022-08-22T20:52:07.619Z,40.66
2022-08-22T20:54:38.146Z,40.16
2022-08-22T20:57:23.158Z,40.73
2022-08-22T21:00:12.827Z,40.61
2022-08-22T21:02:58.865Z,39.87
2022-08-22T21:05:38.173Z,40.52
2022-08-22T21:08:34.447Z,39.85
2022-08-22T21:11:45.530Z,40.58
2022-08-22T21:14:25.049Z,40.56
2022-08-22T21:17:39.306Z,40.78
2022-08-22T21:20:19.533Z,39.98
2022-08-22T21:22:47.429Z,39.91
2022-08-22T21:25:15.324Z,40.84
2022-08-22T21:27:48.735Z,40.74
2022-08-22T21:30:24.897Z,40.93
2022-08-22T21:33:01.045Z,41.01
2022-08-22T21:35:34.242Z,40.98
2022-08-22T21:38:04.284Z,40.40
2022-08-22T21:40:37.488Z,40.78
2022-08-22T21:43:10.930Z,41.06
2022-08-22T21:45:38.677Z,41.31
2022-08-22T21:48:36.910Z,41.28
2022-08-22T21:51:25.086Z,41.18
2022-08-22T21:54:24.476Z,41.53
2022-08-22T21:56:57.950Z,41.24
2022-08-22T21:59:51.704Z,40.99
2022-08-22T22:02:43.695Z,40.65
2022-08-22T22:05:19.159Z,40.99
2022-08-22T22:07:47.951Z,41.08
2022-08-22T22:10:19.280Z,40.86
2022-08-22T22:13:17.289Z,41.38
2022-08-22T22:15:49.083Z,41.72
2022-08-22T22:18:22.626Z,41.37
2022-08-22T22:20:58.510Z,41.03
2022-08-22T22:23:30.931Z,40.88
2022-08-22T22:26:07.353Z,41.10
2022-08-22T22:28:46.674Z,41.16
2022-08-22T22:31:15.999Z,41.60
2022-08-22T22:33:45.661Z,41.46
2022-08-22T22:36:34.390Z,41.50
2022-08-22T22:39:21.498Z,41.08
2022-08-22T22:41:49.563Z,41.44
2022-08-22T22:44:27.765Z,41.32
2022-08-22T22:47:02.148Z,41.94
2022-08-22T22:49:49.650Z,41.38
2022-08-22T22:52:22.573Z,41.63
2022-08-22T22:54:50.258Z,42.05
2022-08-22T22:57:25.422Z,41.75
2022-08-22T22:59:52.882Z,41.40
2022-08-22T23:02:24.124Z,41.83
2022-08-22T23:04:57.193Z,41.76
2022-08-22T23:07:26.643Z,41.48
2022-08-22T23:09:57.236Z,41.83
2022-08-22T23:12:30.971Z,41.51
2022-08-22T23:15:03.120Z,41.99
2022-08-22T23:17:32.841Z,41.53
2022-08-22T23:20:00.162Z,41.46
2022-08-22T23:22:27.891Z,41.95
2022-08-22T23:24:57.480Z,41.84
2022-08-22T23:27:28.661Z,41.88
2022-08-22T23:29:58.582Z,41.80
2022-08-22T23:32:28.885Z,41.77
2022-08-22T23:34:58.703Z,41.70
2022-08-22T23:37:34.475Z,42.03
2022-08-22T23:40:01.509Z,41.52
2022-08-22T23:42:29.559Z,42.18
2022-08-22T23:44:56.522Z,41.83
2022-08-22T23:47:23.475Z,41.74
2022-08-22T23:49:50.387Z,41.67
2022-08-22T23:52:17.354Z,42.00
2022-08-22T23:54:44.443Z,42.21
2022-08-22T23:57:12.386Z,41.84
2022-08-22T23:59:46.380Z,42.20
